Time;durP1;ratioP1;P1;durP2;ratioP2;P2;SDS_P1;SDS_P2;PMS_P1;PMS_P2;Temp;Humidity;BMP_temperature;BMP_pressure;BME280_temperature;BME280_humidity;BME280_pressure;Samples;Min_cycle;Max_cycle;Signal;HPM_P1;HPM_P2
2021/10/03 00:00:44;;;;;;;25.03;11.30;;;;;;;;;;773630;179;918926;-64
2021/10/03 00:03:10;;;;;;;14.47;10.93;;;;;;;;;;773895;179;917984;-63
2021/10/03 00:05:36;;;;;;;18.47;11.40;;;;;;;;;;771189;179;920288;-63
2021/10/03 00:08:04;;;;;;;13.50;10.33;;;;;;;;;;779607;179;919396;-64
2021/10/03 00:10:28;;;;;;;22.57;11.23;;;;;;;;;;766269;181;918737;-64
2021/10/03 00:12:54;;;;;;;17.67;10.77;;;;;;;;;;769333;181;916263;-63
2021/10/03 00:15:20;;;;;;;17.27;10.90;;;;;;;;;;771459;181;917830;-62
2021/10/03 00:17:45;;;;;;;22.63;10.60;;;;;;;;;;770568;180;915696;-63
2021/10/03 00:20:11;;;;;;;16.23;11.40;;;;;;;;;;771857;181;919637;-63
2021/10/03 00:22:38;;;;;;;17.60;12.07;;;;;;;;;;771407;180;919102;-63
2021/10/03 00:25:03;;;;;;;16.70;12.43;;;;;;;;;;770687;180;919404;-63
2021/10/03 00:27:29;;;;;;;20.97;13.20;;;;;;;;;;770366;180;919495;-63
2021/10/03 00:29:55;;;;;;;21.90;11.73;;;;;;;;;;771787;180;918826;-63
2021/10/03 00:32:21;;;;;;;20.92;11.55;;;;;;;;;;772634;181;919871;-63
2021/10/03 00:34:47;;;;;;;15.23;11.13;;;;;;;;;;771273;180;920712;-63
2021/10/03 00:37:12;;;;;;;21.47;12.93;;;;;;;;;;763909;180;2084345;-64
2021/10/03 00:39:38;;;;;;;16.50;11.50;;;;;;;;;;778960;180;918280;-64
2021/10/03 00:42:04;;;;;;;17.53;11.87;;;;;;;;;;760857;181;928137;-64
2021/10/03 00:44:30;;;;;;;21.40;11.93;;;;;;;;;;769024;181;919029;-65
2021/10/03 00:46:57;;;;;;;15.90;10.90;;;;;;;;;;777794;180;918609;-65
2021/10/03 00:49:22;;;;;;;17.20;11.13;;;;;;;;;;767238;180;919567;-64
2021/10/03 00:51:47;;;;;;;19.60;11.03;;;;;;;;;;770641;180;922549;-64
2021/10/03 00:54:13;;;;;;;17.53;11.53;;;;;;;;;;770578;181;924162;-64
2021/10/03 00:56:39;;;;;;;15.63;10.77;;;;;;;;;;775817;181;918951;-64
2021/10/03 00:59:05;;;;;;;20.30;12.17;;;;;;;;;;771018;181;919904;-64
2021/10/03 01:01:31;;;;;;;17.83;12.77;;;;;;;;;;766992;180;919724;-64
2021/10/03 01:03:57;;;;;;;18.02;12.18;;;;;;;;;;775901;180;918630;-64
2021/10/03 01:06:22;;;;;;;25.13;13.30;;;;;;;;;;769669;180;918582;-64
2021/10/03 01:08:48;;;;;;;19.37;10.77;;;;;;;;;;769094;181;918744;-65
2021/10/03 01:11:14;;;;;;;16.83;11.47;;;;;;;;;;774178;180;917505;-64
2021/10/03 01:13:40;;;;;;;23.07;12.17;;;;;;;;;;772903;179;919231;-63
2021/10/03 01:16:07;;;;;;;16.27;10.53;;;;;;;;;;773743;179;919055;-63
2021/10/03 01:18:32;;;;;;;19.27;10.33;;;;;;;;;;771407;181;920020;-63
2021/10/03 01:20:58;;;;;;;16.83;10.67;;;;;;;;;;773479;180;919438;-64
2021/10/03 01:23:24;;;;;;;13.73;11.20;;;;;;;;;;772133;179;920048;-63
2021/10/03 01:25:50;;;;;;;16.47;10.23;;;;;;;;;;770972;180;919809;-63
2021/10/03 01:28:15;;;;;;;15.97;11.17;;;;;;;;;;777002;180;918704;-63
2021/10/03 01:30:42;;;;;;;18.70;11.33;;;;;;;;;;770833;180;966748;-63
2021/10/03 01:33:07;;;;;;;13.07;9.67;;;;;;;;;;763952;181;918893;-63
2021/10/03 01:35:33;;;;;;;12.70;9.13;;;;;;;;;;775119;180;918390;-65
2021/10/03 01:37:59;;;;;;;18.60;11.57;;;;;;;;;;768746;180;920558;-63
2021/10/03 01:40:25;;;;;;;18.03;10.73;;;;;;;;;;767717;181;918319;-62
2021/10/03 01:42:52;;;;;;;16.67;12.40;;;;;;;;;;773459;180;919908;-63
2021/10/03 01:45:16;;;;;;;15.93;12.13;;;;;;;;;;767140;183;918698;-63
2021/10/03 01:47:58;;;;;;;15.30;10.60;;;;;;;;;;769105;180;918581;-63
2021/10/03 01:50:24;;;;;;;16.17;11.07;;;;;;;;;;770387;179;919140;-64
2021/10/03 01:52:50;;;;;;;17.77;11.03;;;;;;;;;;759813;183;918711;-64
2021/10/03 01:55:16;;;;;;;16.30;10.83;;;;;;;;;;753763;186;918302;-64
2021/10/03 01:57:41;;;;;;;18.77;10.73;;;;;;;;;;755152;185;919082;-64
2021/10/03 02:00:08;;;;;;;19.43;12.53;;;;;;;;;;756189;185;920450;-64
2021/10/03 02:02:34;;;;;;;20.80;11.60;;;;;;;;;;775137;180;920315;-64
2021/10/03 02:05:00;;;;;;;13.47;10.10;;;;;;;;;;773362;180;919588;-64
2021/10/03 02:07:28;;;;;;;13.65;10.15;;;;;;;;;;771787;180;920527;-64
2021/10/03 02:09:51;;;;;;;14.57;11.20;;;;;;;;;;776795;180;918369;-65
2021/10/03 02:12:17;;;;;;;15.10;10.63;;;;;;;;;;770662;180;919578;-64
2021/10/03 02:14:43;;;;;;;13.17;9.97;;;;;;;;;;770486;180;917431;-64
2021/10/03 02:17:09;;;;;;;19.37;11.50;;;;;;;;;;771537;180;917379;-64
2021/10/03 02:19:35;;;;;;;14.10;10.83;;;;;;;;;;775353;180;918203;-64
2021/10/03 02:22:01;;;;;;;16.70;11.27;;;;;;;;;;770477;180;922283;-65
2021/10/03 02:24:26;;;;;;;15.17;11.00;;;;;;;;;;771414;179;918957;-65
2021/10/03 02:26:52;;;;;;;18.37;10.73;;;;;;;;;;782367;179;922599;-65
2021/10/03 02:29:18;;;;;;;14.43;10.47;;;;;;;;;;766237;180;919330;-64
2021/10/03 02:31:44;;;;;;;16.45;10.65;;;;;;;;;;769441;180;919422;-64
2021/10/03 02:34:10;;;;;;;18.43;12.57;;;;;;;;;;774123;180;918108;-64
2021/10/03 02:36:36;;;;;;;13.37;9.67;;;;;;;;;;771015;180;935038;-65
2021/10/03 02:39:01;;;;;;;16.00;11.57;;;;;;;;;;770332;180;918727;-64
2021/10/03 02:41:27;;;;;;;14.20;10.50;;;;;;;;;;767746;179;914973;-64
2021/10/03 02:43:53;;;;;;;17.37;11.10;;;;;;;;;;771670;180;890599;-64
2021/10/03 02:46:19;;;;;;;19.13;12.47;;;;;;;;;;771313;180;916142;-64
2021/10/03 02:48:49;;;;;;;22.15;14.50;;;;;;;;;;771098;180;916737;-64
2021/10/03 02:51:11;;;;;;;21.33;14.17;;;;;;;;;;778488;179;914363;-64
2021/10/03 02:53:37;;;;;;;20.50;14.30;;;;;;;;;;773446;179;918625;-65
2021/10/03 02:56:02;;;;;;;22.93;13.23;;;;;;;;;;774950;179;918843;-64
2021/10/03 02:58:29;;;;;;;21.67;14.10;;;;;;;;;;763375;183;919305;-64
2021/10/03 03:00:54;;;;;;;19.40;13.30;;;;;;;;;;773102;180;917924;-64
2021/10/03 03:03:20;;;;;;;16.80;11.90;;;;;;;;;;773817;180;918963;-65
2021/10/03 03:05:48;;;;;;;16.37;11.63;;;;;;;;;;780484;180;918957;-64
2021/10/03 03:08:12;;;;;;;16.80;12.20;;;;;;;;;;773673;180;917210;-65
2021/10/03 03:10:38;;;;;;;17.23;11.73;;;;;;;;;;768431;180;919028;-65
2021/10/03 03:13:04;;;;;;;18.25;11.38;;;;;;;;;;764875;180;934272;-64
2021/10/03 03:15:30;;;;;;;14.40;11.50;;;;;;;;;;751532;185;919468;-64
2021/10/03 03:17:56;;;;;;;17.00;12.53;;;;;;;;;;763764;180;918346;-64
2021/10/03 03:20:22;;;;;;;21.63;13.37;;;;;;;;;;770933;181;919183;-64
2021/10/03 03:22:47;;;;;;;16.33;12.87;;;;;;;;;;772273;180;918727;-65
2021/10/03 03:25:14;;;;;;;21.98;14.35;;;;;;;;;;759312;180;918816;-64
2021/10/03 03:27:40;;;;;;;17.57;12.60;;;;;;;;;;769749;180;920095;-64
2021/10/03 03:30:06;;;;;;;21.13;15.10;;;;;;;;;;778323;180;1021749;-65
2021/10/03 03:32:32;;;;;;;21.23;14.23;;;;;;;;;;768274;181;918383;-65
2021/10/03 03:34:58;;;;;;;19.67;10.60;;;;;;;;;;769097;181;919355;-64
2021/10/03 03:37:24;;;;;;;20.90;11.07;;;;;;;;;;759071;183;919158;-67
2021/10/03 03:39:50;;;;;;;20.95;9.75;;;;;;;;;;756855;184;917069;-69
2021/10/03 03:42:16;;;;;;;21.27;8.97;;;;;;;;;;761921;181;920175;-65
2021/10/03 03:44:41;;;;;;;9.00;7.13;;;;;;;;;;773656;180;919303;-66
2021/10/03 03:47:07;;;;;;;12.73;8.98;;;;;;;;;;779990;180;918652;-65
2021/10/03 03:49:33;;;;;;;15.73;8.27;;;;;;;;;;772898;180;919148;-65
2021/10/03 03:51:59;;;;;;;10.27;7.10;;;;;;;;;;774355;180;918610;-65
2021/10/03 03:54:25;;;;;;;15.57;8.30;;;;;;;;;;778319;180;919045;-65
2021/10/03 03:56:51;;;;;;;11.37;8.03;;;;;;;;;;772784;180;919650;-66
2021/10/03 03:59:16;;;;;;;13.05;7.00;;;;;;;;;;772362;179;916026;-66
2021/10/03 04:01:42;;;;;;;11.30;7.30;;;;;;;;;;763135;181;916994;-65
2021/10/03 04:04:09;;;;;;;10.00;6.57;;;;;;;;;;779373;180;1018401;-64
2021/10/03 04:06:34;;;;;;;13.20;6.80;;;;;;;;;;773461;180;915109;-66
2021/10/03 04:09:00;;;;;;;12.13;7.82;;;;;;;;;;764047;182;919742;-66
2021/10/03 04:11:26;;;;;;;14.57;7.30;;;;;;;;;;770416;181;919355;-65
2021/10/03 04:13:51;;;;;;;10.00;6.97;;;;;;;;;;763118;180;919555;-66
2021/10/03 04:16:17;;;;;;;19.00;6.53;;;;;;;;;;770661;180;918671;-67
2021/10/03 04:18:43;;;;;;;12.23;6.33;;;;;;;;;;772161;180;919083;-66
2021/10/03 04:21:09;;;;;;;11.60;7.37;;;;;;;;;;775207;179;919206;-65
2021/10/03 04:23:35;;;;;;;10.50;6.10;;;;;;;;;;768430;179;919170;-66
2021/10/03 04:26:01;;;;;;;10.40;7.10;;;;;;;;;;765843;181;919307;-66
2021/10/03 04:28:26;;;;;;;9.00;6.00;;;;;;;;;;763379;182;919756;-66
2021/10/03 04:30:52;;;;;;;18.93;6.27;;;;;;;;;;766557;180;918479;-66
2021/10/03 04:33:18;;;;;;;9.90;6.40;;;;;;;;;;773457;180;920133;-66
2021/10/03 04:35:44;;;;;;;8.70;6.33;;;;;;;;;;780730;180;919760;-66
2021/10/03 04:38:10;;;;;;;15.60;6.40;;;;;;;;;;772343;180;919146;-66
2021/10/03 04:40:36;;;;;;;10.93;6.97;;;;;;;;;;773725;180;1019854;-66
2021/10/03 04:43:02;;;;;;;17.80;5.73;;;;;;;;;;779681;180;918040;-67
2021/10/03 04:45:27;;;;;;;11.17;5.80;;;;;;;;;;763963;180;920002;-66
2021/10/03 04:47:53;;;;;;;12.07;6.27;;;;;;;;;;769199;181;919198;-66
2021/10/03 04:50:20;;;;;;;9.52;6.68;;;;;;;;;;777485;180;919126;-66
2021/10/03 04:52:46;;;;;;;12.10;6.77;;;;;;;;;;768798;180;918561;-66
2021/10/03 04:55:12;;;;;;;18.37;6.03;;;;;;;;;;775153;179;919000;-67
2021/10/03 04:57:37;;;;;;;8.83;6.10;;;;;;;;;;763053;181;920438;-65
2021/10/03 05:00:04;;;;;;;9.13;6.80;;;;;;;;;;775289;180;918354;-66
2021/10/03 05:02:30;;;;;;;10.60;5.93;;;;;;;;;;777041;180;917251;-67
2021/10/03 05:04:56;;;;;;;10.17;5.20;;;;;;;;;;773142;180;920080;-66
2021/10/03 05:07:22;;;;;;;8.97;5.90;;;;;;;;;;769990;182;918068;-67
2021/10/03 05:09:48;;;;;;;12.82;4.95;;;;;;;;;;768262;181;918408;-67
2021/10/03 05:12:14;;;;;;;8.90;6.00;;;;;;;;;;765777;181;917981;-67
2021/10/03 05:14:40;;;;;;;7.20;5.50;;;;;;;;;;770601;181;919897;-65
2021/10/03 05:17:06;;;;;;;7.80;5.73;;;;;;;;;;768987;180;918873;-67
2021/10/03 05:19:32;;;;;;;10.03;6.13;;;;;;;;;;769544;180;918249;-67
2021/10/03 05:21:58;;;;;;;13.63;5.90;;;;;;;;;;770665;181;921640;-66
2021/10/03 05:24:24;;;;;;;10.97;5.03;;;;;;;;;;774839;180;920032;-68
2021/10/03 05:26:50;;;;;;;13.43;6.27;;;;;;;;;;768819;180;920066;-66
2021/10/03 05:29:15;;;;;;;8.00;5.73;;;;;;;;;;772564;180;916300;-66
2021/10/03 05:31:41;;;;;;;8.80;5.47;;;;;;;;;;776895;179;914745;-67
2021/10/03 05:34:07;;;;;;;9.87;6.37;;;;;;;;;;767293;181;1017601;-67
2021/10/03 05:36:33;;;;;;;12.50;6.33;;;;;;;;;;773092;180;917135;-66
2021/10/03 05:39:00;;;;;;;6.53;5.18;;;;;;;;;;774717;180;915046;-66
2021/10/03 05:41:25;;;;;;;10.73;6.30;;;;;;;;;;766629;181;919626;-67
2021/10/03 05:43:50;;;;;;;13.67;6.20;;;;;;;;;;767468;180;918374;-67
2021/10/03 05:46:16;;;;;;;9.53;5.80;;;;;;;;;;768863;180;919758;-66
2021/10/03 05:48:42;;;;;;;14.47;6.53;;;;;;;;;;771615;180;919145;-66
2021/10/03 05:51:08;;;;;;;11.60;6.60;;;;;;;;;;764707;180;920383;-69
2021/10/03 05:53:34;;;;;;;10.13;6.30;;;;;;;;;;772095;180;917406;-67
2021/10/03 05:56:00;;;;;;;10.13;6.20;;;;;;;;;;775722;180;919117;-67
2021/10/03 05:58:25;;;;;;;8.37;5.97;;;;;;;;;;768817;180;919275;-66
2021/10/03 06:00:51;;;;;;;12.20;6.40;;;;;;;;;;772423;180;936864;-66
2021/10/03 06:03:17;;;;;;;9.57;6.30;;;;;;;;;;776976;180;919010;-66
2021/10/03 06:05:43;;;;;;;11.03;6.20;;;;;;;;;;773228;180;919776;-66
2021/10/03 06:08:10;;;;;;;12.43;5.57;;;;;;;;;;768952;180;917810;-69
2021/10/03 06:10:35;;;;;;;12.40;6.40;;;;;;;;;;766452;181;918805;-66
2021/10/03 06:13:00;;;;;;;8.87;6.70;;;;;;;;;;769802;180;918710;-67
2021/10/03 06:15:26;;;;;;;11.43;7.07;;;;;;;;;;768820;180;919356;-66
2021/10/03 06:17:52;;;;;;;8.63;6.37;;;;;;;;;;772392;180;918960;-67
2021/10/03 06:20:18;;;;;;;8.07;6.50;;;;;;;;;;781750;180;919471;-66
2021/10/03 06:22:45;;;;;;;16.02;6.50;;;;;;;;;;775677;179;920329;-66
2021/10/03 06:25:10;;;;;;;9.57;6.50;;;;;;;;;;777740;179;919012;-67
2021/10/03 06:27:35;;;;;;;13.17;7.20;;;;;;;;;;770371;179;984830;-66
2021/10/03 06:30:01;;;;;;;15.63;6.90;;;;;;;;;;771452;179;918587;-66
2021/10/03 06:32:27;;;;;;;8.50;6.80;;;;;;;;;;770449;181;919220;-66
2021/10/03 06:34:53;;;;;;;17.77;6.90;;;;;;;;;;778326;180;919304;-66
2021/10/03 06:37:19;;;;;;;16.03;7.40;;;;;;;;;;768643;177;951992;-67
2021/10/03 06:39:45;;;;;;;9.83;7.80;;;;;;;;;;772066;181;919249;-66
2021/10/03 06:42:11;;;;;;;18.23;8.27;;;;;;;;;;771601;180;919212;-66
2021/10/03 06:44:37;;;;;;;11.37;8.60;;;;;;;;;;776937;179;918251;-67
2021/10/03 06:47:05;;;;;;;12.33;7.27;;;;;;;;;;772781;179;980737;-67
2021/10/03 06:49:28;;;;;;;10.13;8.20;;;;;;;;;;773695;181;919832;-67
2021/10/03 06:51:54;;;;;;;10.27;6.80;;;;;;;;;;773982;181;917980;-66
2021/10/03 06:54:20;;;;;;;12.30;7.33;;;;;;;;;;771093;180;918352;-67
2021/10/03 06:56:46;;;;;;;11.30;7.90;;;;;;;;;;771020;180;919590;-66
2021/10/03 06:59:12;;;;;;;10.57;7.03;;;;;;;;;;776804;180;918938;-66
2021/10/03 07:01:38;;;;;;;9.80;7.67;;;;;;;;;;766575;181;918702;-66
2021/10/03 07:04:03;;;;;;;17.03;8.17;;;;;;;;;;770121;180;918666;-66
2021/10/03 07:06:29;;;;;;;10.23;8.30;;;;;;;;;;766597;180;919469;-66
2021/10/03 07:08:55;;;;;;;11.73;8.77;;;;;;;;;;772051;180;918828;-67
2021/10/03 07:11:21;;;;;;;14.63;8.30;;;;;;;;;;776529;179;655185;-67
2021/10/03 07:13:49;;;;;;;9.47;7.13;;;;;;;;;;768870;180;918714;-66
2021/10/03 07:16:13;;;;;;;12.23;8.97;;;;;;;;;;774184;180;904679;-67
2021/10/03 07:18:38;;;;;;;12.33;7.23;;;;;;;;;;765497;180;1038129;-67
2021/10/03 07:21:04;;;;;;;12.27;8.10;;;;;;;;;;771915;181;919639;-68
2021/10/03 07:23:32;;;;;;;12.03;8.53;;;;;;;;;;777116;180;917807;-67
2021/10/03 07:25:56;;;;;;;10.57;8.07;;;;;;;;;;772104;180;919715;-66
2021/10/03 07:28:23;;;;;;;13.60;7.87;;;;;;;;;;772602;181;919545;-67
2021/10/03 07:30:48;;;;;;;9.50;6.50;;;;;;;;;;774145;180;919332;-66
2021/10/03 07:33:14;;;;;;;11.63;7.43;;;;;;;;;;765582;182;918398;-66
2021/10/03 07:35:39;;;;;;;12.13;7.97;;;;;;;;;;742897;187;919554;-67
2021/10/03 07:38:05;;;;;;;13.27;8.20;;;;;;;;;;761839;183;920451;-67
2021/10/03 07:40:31;;;;;;;11.53;8.10;;;;;;;;;;746297;187;1023060;-67
2021/10/03 07:42:57;;;;;;;12.33;8.70;;;;;;;;;;779598;179;919961;-66
2021/10/03 07:45:23;;;;;;;14.60;8.87;;;;;;;;;;773677;179;915051;-67
2021/10/03 07:47:49;;;;;;;13.30;6.90;;;;;;;;;;781113;179;915671;-67
2021/10/03 07:50:14;;;;;;;10.50;7.20;;;;;;;;;;761840;181;914807;-66
2021/10/03 07:52:40;;;;;;;12.20;7.70;;;;;;;;;;770869;180;915557;-67
2021/10/03 07:55:06;;;;;;;10.80;7.50;;;;;;;;;;776980;181;915086;-66
2021/10/03 07:57:32;;;;;;;9.00;6.93;;;;;;;;;;773984;180;919646;-68
2021/10/03 07:59:58;;;;;;;12.93;7.23;;;;;;;;;;769463;181;920293;-66
2021/10/03 08:02:24;;;;;;;15.77;7.53;;;;;;;;;;769396;181;918758;-67
2021/10/03 08:04:50;;;;;;;13.47;7.60;;;;;;;;;;772942;180;918857;-66
2021/10/03 08:07:16;;;;;;;10.20;7.10;;;;;;;;;;767254;180;918344;-67
2021/10/03 08:09:42;;;;;;;10.67;7.13;;;;;;;;;;767181;180;919503;-67
2021/10/03 08:12:07;;;;;;;15.80;8.23;;;;;;;;;;776262;181;918523;-66
2021/10/03 08:14:33;;;;;;;15.80;7.40;;;;;;;;;;762298;180;920512;-67
2021/10/03 08:16:59;;;;;;;9.50;6.40;;;;;;;;;;765984;180;917968;-68
2021/10/03 08:19:25;;;;;;;19.50;8.17;;;;;;;;;;777925;180;918433;-67
2021/10/03 08:21:51;;;;;;;8.98;7.50;;;;;;;;;;772406;181;919210;-69
2021/10/03 08:24:16;;;;;;;10.73;6.80;;;;;;;;;;775155;179;919703;-68
2021/10/03 08:26:42;;;;;;;12.50;7.57;;;;;;;;;;774947;180;924126;-68
2021/10/03 08:29:08;;;;;;;12.23;8.17;;;;;;;;;;766622;182;1021079;-67
2021/10/03 08:31:34;;;;;;;9.47;6.40;;;;;;;;;;758524;182;918940;-67
2021/10/03 08:34:00;;;;;;;8.55;6.07;;;;;;;;;;775666;180;918666;-67
2021/10/03 08:36:26;;;;;;;8.70;7.17;;;;;;;;;;777580;179;918898;-67
2021/10/03 08:38:53;;;;;;;10.47;7.60;;;;;;;;;;773849;181;919516;-65
2021/10/03 08:41:17;;;;;;;8.10;6.77;;;;;;;;;;772357;181;926725;-67
2021/10/03 08:43:43;;;;;;;10.43;7.63;;;;;;;;;;779929;180;918024;-65
2021/10/03 08:46:09;;;;;;;10.10;7.53;;;;;;;;;;774021;180;919093;-68
2021/10/03 08:48:35;;;;;;;14.63;6.70;;;;;;;;;;774614;180;918141;-70
2021/10/03 08:51:01;;;;;;;13.20;7.10;;;;;;;;;;771675;181;1020723;-69
2021/10/03 08:53:27;;;;;;;9.63;7.37;;;;;;;;;;764028;180;918573;-71
2021/10/03 08:55:56;;;;;;;11.90;6.67;;;;;;;;;;752343;184;918444;-70
2021/10/03 08:58:19;;;;;;;8.10;6.30;;;;;;;;;;749586;184;919342;-70
2021/10/03 09:00:46;;;;;;;13.00;7.37;;;;;;;;;;774518;180;918768;-70
2021/10/03 09:03:11;;;;;;;12.87;7.57;;;;;;;;;;772274;181;920605;-72
2021/10/03 09:05:37;;;;;;;10.83;6.80;;;;;;;;;;769617;181;927480;-69
2021/10/03 09:08:03;;;;;;;10.00;6.90;;;;;;;;;;776953;181;917517;-70
2021/10/03 09:10:29;;;;;;;9.90;6.73;;;;;;;;;;772540;180;918063;-68
2021/10/03 09:12:56;;;;;;;11.30;6.93;;;;;;;;;;772890;180;922176;-69
2021/10/03 09:15:22;;;;;;;8.20;6.35;;;;;;;;;;773330;181;919233;-69
2021/10/03 09:17:47;;;;;;;11.50;6.37;;;;;;;;;;763082;181;916640;-67
2021/10/03 09:20:13;;;;;;;9.40;7.03;;;;;;;;;;770607;179;920018;-70
2021/10/03 09:22:57;;;;;;;9.13;6.37;;;;;;;;;;769996;181;918098;-69
2021/10/03 09:25:29;;;;;;;9.93;5.93;;;;;;;;;;767028;180;914204;-70
2021/10/03 09:27:54;;;;;;;12.07;8.10;;;;;;;;;;777544;180;913711;-69
2021/10/03 09:30:20;;;;;;;10.30;6.97;;;;;;;;;;767892;180;932294;-71
2021/10/03 09:32:46;;;;;;;12.00;6.40;;;;;;;;;;770180;181;937327;-70
2021/10/03 09:35:12;;;;;;;11.27;7.10;;;;;;;;;;773874;178;916819;-70
2021/10/03 09:37:39;;;;;;;9.10;6.30;;;;;;;;;;776726;180;919234;-71
2021/10/03 09:40:07;;;;;;;13.07;6.47;;;;;;;;;;767540;180;919103;-70
2021/10/03 09:42:33;;;;;;;13.20;7.33;;;;;;;;;;771314;179;918492;-71
2021/10/03 09:45:21;;;;;;;10.73;5.50;;;;;;;;;;767334;179;1137146;-68
2021/10/03 09:47:45;;;;;;;11.50;6.57;;;;;;;;;;774502;180;918547;-70
2021/10/03 09:50:11;;;;;;;9.00;5.40;;;;;;;;;;772501;181;713258;-73
2021/10/03 09:52:37;;;;;;;14.13;6.40;;;;;;;;;;767331;180;920172;-67
2021/10/03 09:55:02;;;;;;;8.23;7.00;;;;;;;;;;772100;180;920092;-71
2021/10/03 09:57:28;;;;;;;10.13;6.40;;;;;;;;;;777338;180;918522;-70
2021/10/03 09:59:54;;;;;;;10.70;7.00;;;;;;;;;;767030;181;1021164;-69
2021/10/03 10:02:20;;;;;;;13.47;7.27;;;;;;;;;;772313;179;919602;-70
2021/10/03 10:04:46;;;;;;;9.43;6.10;;;;;;;;;;778509;179;922267;-72
2021/10/03 10:07:12;;;;;;;8.93;6.00;;;;;;;;;;768742;180;921786;-70
2021/10/03 10:09:37;;;;;;;8.48;6.03;;;;;;;;;;771174;180;918974;-69
2021/10/03 10:12:05;;;;;;;8.70;5.80;;;;;;;;;;774666;180;924745;-68
2021/10/03 10:14:31;;;;;;;11.90;5.93;;;;;;;;;;768805;179;918199;-69
2021/10/03 10:17:00;;;;;;;9.37;6.60;;;;;;;;;;771687;181;919115;-70
2021/10/03 10:19:28;;;;;;;9.20;5.87;;;;;;;;;;772003;180;918346;-68
2021/10/03 10:21:59;;;;;;;10.73;5.73;;;;;;;;;;760802;183;919482;-68
2021/10/03 10:24:31;;;;;;;8.90;4.80;;;;;;;;;;738433;188;927698;-70
2021/10/03 10:26:57;;;;;;;11.73;6.00;;;;;;;;;;773580;180;918795;-68
2021/10/03 10:29:28;;;;;;;7.10;5.90;;;;;;;;;;769484;180;919594;-70
2021/10/03 10:31:59;;;;;;;7.87;6.00;;;;;;;;;;777468;180;918329;-71
2021/10/03 10:34:25;;;;;;;17.03;6.60;;;;;;;;;;776663;180;1122458;-70
2021/10/03 10:36:51;;;;;;;9.60;6.57;;;;;;;;;;770512;180;919038;-68
2021/10/03 10:39:17;;;;;;;10.30;7.00;;;;;;;;;;772126;179;919398;-67
2021/10/03 10:41:43;;;;;;;9.10;6.97;;;;;;;;;;775738;181;919116;-68
2021/10/03 10:44:27;;;;;;;9.43;6.70;;;;;;;;;;771973;180;918905;-71
2021/10/03 10:46:53;;;;;;;8.87;6.30;;;;;;;;;;770852;179;918335;-70
2021/10/03 10:49:35;;;;;;;9.30;6.93;;;;;;;;;;763355;182;920543;-70
2021/10/03 10:52:06;;;;;;;6.80;5.83;;;;;;;;;;768292;180;920998;-68
2021/10/03 10:54:32;;;;;;;9.05;6.20;;;;;;;;;;769719;179;917818;-64
2021/10/03 10:57:00;;;;;;;7.50;5.60;;;;;;;;;;776515;179;919232;-66
2021/10/03 10:59:26;;;;;;;11.60;6.47;;;;;;;;;;770842;179;1042065;-67
2021/10/03 11:01:52;;;;;;;8.93;6.40;;;;;;;;;;773159;179;919413;-66
2021/10/03 11:04:22;;;;;;;9.07;7.27;;;;;;;;;;780082;179;918695;-66
2021/10/03 11:06:50;;;;;;;7.80;6.33;;;;;;;;;;763698;179;945003;-68
2021/10/03 11:09:16;;;;;;;13.30;6.63;;;;;;;;;;765673;181;919114;-67
2021/10/03 11:11:48;;;;;;;12.73;6.40;;;;;;;;;;773579;180;916957;-68
2021/10/03 11:14:16;;;;;;;7.97;6.47;;;;;;;;;;777046;180;918158;-67
2021/10/03 11:16:46;;;;;;;11.00;6.97;;;;;;;;;;775357;180;918073;-68
2021/10/03 11:19:13;;;;;;;10.40;5.80;;;;;;;;;;764926;180;920730;-69
2021/10/03 11:21:37;;;;;;;7.20;6.10;;;;;;;;;;773358;180;919164;-68
2021/10/03 11:24:03;;;;;;;11.30;6.70;;;;;;;;;;773450;181;918928;-67
2021/10/03 11:26:28;;;;;;;7.83;6.80;;;;;;;;;;767024;181;1036867;-67
2021/10/03 11:28:54;;;;;;;8.68;5.93;;;;;;;;;;769599;180;1122208;-71
2021/10/03 11:31:26;;;;;;;9.67;6.20;;;;;;;;;;772977;180;918799;-69
2021/10/03 11:33:52;;;;;;;9.77;6.50;;;;;;;;;;771557;179;918271;-69
2021/10/03 11:36:18;;;;;;;8.77;6.10;;;;;;;;;;771249;180;919311;-68
2021/10/03 11:38:46;;;;;;;10.40;6.30;;;;;;;;;;773756;180;919985;-68
2021/10/03 11:41:12;;;;;;;13.80;6.50;;;;;;;;;;762351;184;918075;-68
2021/10/03 11:43:38;;;;;;;9.83;6.17;;;;;;;;;;781246;176;919825;-67
2021/10/03 11:46:05;;;;;;;10.10;5.67;;;;;;;;;;773107;179;925843;-68
2021/10/03 11:48:31;;;;;;;10.70;6.30;;;;;;;;;;771327;180;908728;-69
2021/10/03 11:50:56;;;;;;;11.10;6.00;;;;;;;;;;764022;180;915638;-67
2021/10/03 11:53:23;;;;;;;14.47;6.30;;;;;;;;;;772294;181;920483;-70
2021/10/03 11:55:48;;;;;;;7.57;6.10;;;;;;;;;;773582;181;919472;-69
2021/10/03 11:58:14;;;;;;;19.70;8.70;;;;;;;;;;770174;180;916656;-68
2021/10/03 12:00:46;;;;;;;12.17;6.27;;;;;;;;;;766789;180;918994;-68
2021/10/03 12:03:12;;;;;;;10.17;7.33;;;;;;;;;;773015;180;918910;-65
2021/10/03 12:05:37;;;;;;;9.40;7.20;;;;;;;;;;774330;181;1345575;-69
2021/10/03 12:08:04;;;;;;;27.70;11.40;;;;;;;;;;773210;181;917540;-69
2021/10/03 12:10:33;;;;;;;7.80;6.22;;;;;;;;;;764753;181;918795;-69
2021/10/03 12:12:59;;;;;;;11.67;8.17;;;;;;;;;;767793;180;918711;-74
2021/10/03 12:15:31;;;;;;;9.77;6.43;;;;;;;;;;763921;182;910829;-69
2021/10/03 12:17:57;;;;;;;48.37;17.10;;;;;;;;;;767880;180;919479;-71
2021/10/03 12:20:22;;;;;;;13.00;6.60;;;;;;;;;;769865;181;918672;-71
2021/10/03 12:22:52;;;;;;;10.30;7.60;;;;;;;;;;770231;181;918148;-70
2021/10/03 12:25:18;;;;;;;11.77;6.27;;;;;;;;;;773910;180;917972;-71
2021/10/03 12:27:44;;;;;;;9.03;7.10;;;;;;;;;;771629;180;919636;-73
2021/10/03 12:30:10;;;;;;;21.37;10.03;;;;;;;;;;767909;180;919730;-69
2021/10/03 12:32:36;;;;;;;12.53;6.23;;;;;;;;;;778356;180;918347;-71
2021/10/03 12:35:02;;;;;;;16.93;9.37;;;;;;;;;;770581;179;921172;-71
2021/10/03 12:37:32;;;;;;;6.80;5.77;;;;;;;;;;770525;180;919165;-70
2021/10/03 12:39:55;;;;;;;8.00;5.17;;;;;;;;;;771460;182;919466;-68
2021/10/03 12:42:19;;;;;;;7.50;6.00;;;;;;;;;;771492;181;919373;-69
2021/10/03 12:44:45;;;;;;;7.10;5.97;;;;;;;;;;776695;180;927119;-70
2021/10/03 12:47:11;;;;;;;10.03;6.73;;;;;;;;;;776231;180;919086;-70
2021/10/03 12:49:37;;;;;;;9.40;6.33;;;;;;;;;;764918;180;924942;-70
2021/10/03 12:52:05;;;;;;;10.83;7.00;;;;;;;;;;769029;180;919247;-71
2021/10/03 12:54:31;;;;;;;8.90;6.20;;;;;;;;;;767781;181;919006;-70
2021/10/03 12:56:56;;;;;;;7.77;5.63;;;;;;;;;;766925;182;920076;-71
2021/10/03 12:59:22;;;;;;;9.27;6.13;;;;;;;;;;767481;181;918205;-69
2021/10/03 13:01:48;;;;;;;9.10;6.90;;;;;;;;;;768218;180;918931;-70
2021/10/03 13:04:14;;;;;;;7.77;6.27;;;;;;;;;;767660;182;954404;-70
2021/10/03 13:06:40;;;;;;;11.60;7.93;;;;;;;;;;769550;180;919133;-72
2021/10/03 13:09:06;;;;;;;16.80;8.23;;;;;;;;;;767538;179;1021079;-75
2021/10/03 13:11:32;;;;;;;7.13;5.47;;;;;;;;;;778165;179;918948;-74
2021/10/03 13:13:57;;;;;;;9.23;5.63;;;;;;;;;;772971;180;919402;-71
2021/10/03 13:16:23;;;;;;;9.90;6.13;;;;;;;;;;770004;180;918189;-69
2021/10/03 13:18:49;;;;;;;8.73;5.70;;;;;;;;;;770291;180;1028436;-71
2021/10/03 13:21:16;;;;;;;9.57;6.30;;;;;;;;;;781064;180;923238;-74
2021/10/03 13:23:41;;;;;;;9.90;6.80;;;;;;;;;;771606;180;920243;-75
2021/10/03 13:26:07;;;;;;;10.40;6.53;;;;;;;;;;772125;181;929086;-74
2021/10/03 13:28:33;;;;;;;8.00;6.37;;;;;;;;;;776642;180;926977;-72
2021/10/03 13:31:00;;;;;;;175.07;46.57;;;;;;;;;;773615;180;918967;-71
2021/10/03 13:33:25;;;;;;;9.47;6.67;;;;;;;;;;768083;180;918927;-77
2021/10/03 13:35:51;;;;;;;8.93;6.03;;;;;;;;;;776599;181;918774;-73
2021/10/03 13:38:18;;;;;;;14.50;8.63;;;;;;;;;;769083;180;919062;-74
2021/10/03 13:40:42;;;;;;;18.92;9.25;;;;;;;;;;770116;180;929039;-71
2021/10/03 13:43:08;;;;;;;13.87;6.03;;;;;;;;;;764410;181;928098;-75
2021/10/03 13:45:34;;;;;;;7.63;5.43;;;;;;;;;;761985;182;918432;-72
2021/10/03 13:48:00;;;;;;;10.23;6.53;;;;;;;;;;745153;186;918478;-72
2021/10/03 13:50:26;;;;;;;9.83;6.87;;;;;;;;;;746803;187;919673;-71
2021/10/03 13:52:52;;;;;;;11.47;6.60;;;;;;;;;;752487;185;920564;-69
2021/10/03 13:55:17;;;;;;;8.80;7.13;;;;;;;;;;766803;179;918774;-73
2021/10/03 13:57:43;;;;;;;9.85;6.80;;;;;;;;;;763428;181;917753;-71
2021/10/03 14:00:11;;;;;;;10.53;6.57;;;;;;;;;;777318;181;918569;-73
2021/10/03 14:02:36;;;;;;;9.73;6.00;;;;;;;;;;774770;180;919616;-71
2021/10/03 14:05:01;;;;;;;11.53;6.67;;;;;;;;;;770130;180;928744;-75
2021/10/03 14:07:27;;;;;;;8.88;6.68;;;;;;;;;;772423;181;918952;-72
2021/10/03 14:09:53;;;;;;;12.00;7.33;;;;;;;;;;773478;181;1020791;-72